Tuesday, January 15, 2019, 11:26 PM GMT
Back to Local

CWPE, Point Lepreau, N. B.

Location: , , Canada Lat: 45.067
Local Time: 11:26 PM GMT (23:26 GMT) Lon: -66.467
Time Zone: GMT Elev: 3 ft

Show me the last for .
Show Coded

Time T Td Feel RH Dir Speed Gust Alt SLP Vis Weather Sky Remarks
2019-01-15 23:00 22 14 14 73 330° 6 - - 30.02 0 None
2019-01-15 22:00 23 15 17 68 330° 5 - - 30.01 0 None
2019-01-15 21:00 25 15 - 65 340° 2 - - 29.99 0 None
2019-01-15 20:00 27 15 20 61 340° 6 - - 29.96 0 None
2019-01-15 19:00 27 15 18 58 340° 9 - - 29.94 0 None
2019-01-15 18:00 27 14 20 57 350° 7 - - 29.93 0 None
2019-01-15 17:00 25 13 16 60 320° 8 - - 29.93 0 None
2019-01-15 16:00 23 12 13 63 320° 8 - - 29.95 0 None
2019-01-15 15:00 20 10 9 62 330° 10 - - 29.96 0 None
2019-01-15 14:00 19 8 7 62 330° 10 - - 29.96 0 None
2019-01-15 13:00 15 6 6 66 340° 6 - - 29.95 0 None
2019-01-15 12:00 12 4 -1 70 350° 10 - - 29.93 0 None
2019-01-15 11:00 10 5 1 77 330° 6 - - 29.94 0 None
2019-01-15 10:00 9 5 - 84 340° 1 - - 29.93 0 None
2019-01-15 09:00 9 6 0 86 310° 5 - - 29.93 0 None
2019-01-15 08:00 8 4 - 85 - Calm - - 29.93 0 None
2019-01-15 07:00 8 4 - 83 10° 1 - - 29.94 0 None
2019-01-15 06:00 8 5 - 85 310° 2 - - 29.95 0 None
2019-01-15 05:00 10 4 4 76 350° 3 - - 29.96 0 None
2019-01-15 04:00 11 5 3 74 340° 5 - - 29.98 0 None
2019-01-15 03:00 13 5 1 72 350° 8 - - 30.02 0 None
2019-01-15 02:00 13 6 2 74 350° 7 - - 30.04 0 None
2019-01-15 01:00 14 7 3 75 350° 7 - - 30.06 0 None
2019-01-15 00:00 14 8 4 74 350° 7 - - 30.09 0 None

Support USWX by starting your Amazon purchase here.